sensor_id;sensor_type;location;lat;lon;timestamp;temperature;humidity
16032;DHT22;8120;48.308;8.914;2022-12-18T00:01:28;-11.30;92.50
16032;DHT22;8120;48.308;8.914;2022-12-18T00:04:00;-11.30;92.50
16032;DHT22;8120;48.308;8.914;2022-12-18T00:06:33;-11.30;92.20
16032;DHT22;8120;48.308;8.914;2022-12-18T00:09:03;-11.40;92.00
16032;DHT22;8120;48.308;8.914;2022-12-18T00:11:31;-11.50;92.00
16032;DHT22;8120;48.308;8.914;2022-12-18T00:13:59;-11.50;91.60
16032;DHT22;8120;48.308;8.914;2022-12-18T00:16:28;-11.60;91.30
16032;DHT22;8120;48.308;8.914;2022-12-18T00:18:58;-11.70;90.80
16032;DHT22;8120;48.308;8.914;2022-12-18T00:21:28;-11.80;90.70
16032;DHT22;8120;48.308;8.914;2022-12-18T00:23:56;-11.90;90.60
16032;DHT22;8120;48.308;8.914;2022-12-18T00:26:25;-12.00;90.60
16032;DHT22;8120;48.308;8.914;2022-12-18T00:28:54;-12.10;90.20
16032;DHT22;8120;48.308;8.914;2022-12-18T00:31:24;-12.20;90.10
16032;DHT22;8120;48.308;8.914;2022-12-18T00:33:53;-12.30;89.70
16032;DHT22;8120;48.308;8.914;2022-12-18T00:36:25;-12.50;90.00
16032;DHT22;8120;48.308;8.914;2022-12-18T00:38:54;-12.50;90.30
16032;DHT22;8120;48.308;8.914;2022-12-18T00:41:23;-12.60;90.60
16032;DHT22;8120;48.308;8.914;2022-12-18T00:44:06;-12.70;90.20
16032;DHT22;8120;48.308;8.914;2022-12-18T00:46:35;-12.80;89.70
16032;DHT22;8120;48.308;8.914;2022-12-18T00:49:03;-12.90;89.70
16032;DHT22;8120;48.308;8.914;2022-12-18T00:51:32;-12.90;89.90
16032;DHT22;8120;48.308;8.914;2022-12-18T00:54:00;-13.00;89.50
16032;DHT22;8120;48.308;8.914;2022-12-18T00:56:27;-13.00;90.10
16032;DHT22;8120;48.308;8.914;2022-12-18T00:58:55;-13.10;90.00
16032;DHT22;8120;48.308;8.914;2022-12-18T01:01:23;-13.00;90.70
16032;DHT22;8120;48.308;8.914;2022-12-18T01:03:51;-12.90;90.60
16032;DHT22;8120;48.308;8.914;2022-12-18T01:06:19;-13.00;90.10
16032;DHT22;8120;48.308;8.914;2022-12-18T01:08:48;-13.10;89.60
16032;DHT22;8120;48.308;8.914;2022-12-18T01:11:18;-13.20;89.60
16032;DHT22;8120;48.308;8.914;2022-12-18T01:13:47;-13.30;88.80
16032;DHT22;8120;48.308;8.914;2022-12-18T01:16:16;-13.40;88.20
16032;DHT22;8120;48.308;8.914;2022-12-18T01:18:44;-13.60;88.40
16032;DHT22;8120;48.308;8.914;2022-12-18T01:21:15;-13.70;88.40
16032;DHT22;8120;48.308;8.914;2022-12-18T01:23:43;-13.80;88.80
16032;DHT22;8120;48.308;8.914;2022-12-18T01:26:14;-13.70;89.50
16032;DHT22;8120;48.308;8.914;2022-12-18T01:28:43;-13.80;89.50
16032;DHT22;8120;48.308;8.914;2022-12-18T01:31:13;-13.70;90.10
16032;DHT22;8120;48.308;8.914;2022-12-18T01:33:41;-13.80;90.10
16032;DHT22;8120;48.308;8.914;2022-12-18T01:36:15;-13.90;89.30
16032;DHT22;8120;48.308;8.914;2022-12-18T01:38:43;-13.90;89.20
16032;DHT22;8120;48.308;8.914;2022-12-18T01:41:13;-13.90;88.90
16032;DHT22;8120;48.308;8.914;2022-12-18T01:43:47;-13.90;89.20
16032;DHT22;8120;48.308;8.914;2022-12-18T01:46:17;-13.90;89.30
16032;DHT22;8120;48.308;8.914;2022-12-18T01:48:47;-13.80;90.20
16032;DHT22;8120;48.308;8.914;2022-12-18T01:51:16;-13.70;90.00
16032;DHT22;8120;48.308;8.914;2022-12-18T01:53:45;-13.70;90.30
16032;DHT22;8120;48.308;8.914;2022-12-18T01:56:17;-13.60;90.80
16032;DHT22;8120;48.308;8.914;2022-12-18T01:58:51;-13.50;90.70
16032;DHT22;8120;48.308;8.914;2022-12-18T02:01:22;-13.40;91.10
16032;DHT22;8120;48.308;8.914;2022-12-18T02:03:51;-13.30;91.10
16032;DHT22;8120;48.308;8.914;2022-12-18T02:06:23;-13.30;90.60
16032;DHT22;8120;48.308;8.914;2022-12-18T02:09:05;-13.30;90.10
16032;DHT22;8120;48.308;8.914;2022-12-18T02:11:46;-13.20;91.00
16032;DHT22;8120;48.308;8.914;2022-12-18T02:14:25;-13.10;91.50
16032;DHT22;8120;48.308;8.914;2022-12-18T02:17:00;-13.00;91.80
16032;DHT22;8120;48.308;8.914;2022-12-18T02:19:40;-12.90;91.70
16032;DHT22;8120;48.308;8.914;2022-12-18T02:22:25;-12.90;91.20
16032;DHT22;8120;48.308;8.914;2022-12-18T02:25:00;-12.90;90.20
16032;DHT22;8120;48.308;8.914;2022-12-18T02:27:35;-13.00;89.50
16032;DHT22;8120;48.308;8.914;2022-12-18T02:30:06;-13.10;88.80
16032;DHT22;8120;48.308;8.914;2022-12-18T02:32:38;-13.30;88.70
16032;DHT22;8120;48.308;8.914;2022-12-18T02:35:10;-13.30;89.20
16032;DHT22;8120;48.308;8.914;2022-12-18T02:37:39;-13.20;89.70
16032;DHT22;8120;48.308;8.914;2022-12-18T02:40:09;-13.20;89.90
16032;DHT22;8120;48.308;8.914;2022-12-18T02:42:39;-13.20;90.00
16032;DHT22;8120;48.308;8.914;2022-12-18T02:45:07;-13.10;90.60
16032;DHT22;8120;48.308;8.914;2022-12-18T02:47:39;-13.00;90.70
16032;DHT22;8120;48.308;8.914;2022-12-18T02:50:13;-13.00;90.80
16032;DHT22;8120;48.308;8.914;2022-12-18T02:52:51;-13.00;90.60
16032;DHT22;8120;48.308;8.914;2022-12-18T02:55:29;-13.00;90.40
16032;DHT22;8120;48.308;8.914;2022-12-18T02:58:04;-13.00;90.10
16032;DHT22;8120;48.308;8.914;2022-12-18T03:00:37;-13.00;89.90
16032;DHT22;8120;48.308;8.914;2022-12-18T03:03:09;-13.10;89.70
16032;DHT22;8120;48.308;8.914;2022-12-18T03:05:41;-13.00;90.20
16032;DHT22;8120;48.308;8.914;2022-12-18T03:08:14;-13.10;90.00
16032;DHT22;8120;48.308;8.914;2022-12-18T03:10:47;-13.10;89.70
16032;DHT22;8120;48.308;8.914;2022-12-18T03:13:21;-13.20;89.40
16032;DHT22;8120;48.308;8.914;2022-12-18T03:15:52;-13.10;89.70
16032;DHT22;8120;48.308;8.914;2022-12-18T03:18:25;-13.20;89.50
16032;DHT22;8120;48.308;8.914;2022-12-18T03:20:56;-13.10;89.70
16032;DHT22;8120;48.308;8.914;2022-12-18T03:23:29;-13.00;90.70
16032;DHT22;8120;48.308;8.914;2022-12-18T03:26:01;-12.90;90.90
16032;DHT22;8120;48.308;8.914;2022-12-18T03:28:38;-12.90;90.60
16032;DHT22;8120;48.308;8.914;2022-12-18T03:31:09;-13.00;89.90
16032;DHT22;8120;48.308;8.914;2022-12-18T03:33:41;-13.10;89.60
16032;DHT22;8120;48.308;8.914;2022-12-18T03:36:12;-13.10;89.20
16032;DHT22;8120;48.308;8.914;2022-12-18T03:38:39;-13.20;89.40
16032;DHT22;8120;48.308;8.914;2022-12-18T03:41:14;-13.30;89.20
16032;DHT22;8120;48.308;8.914;2022-12-18T03:43:50;-13.30;89.30
16032;DHT22;8120;48.308;8.914;2022-12-18T03:46:25;-13.40;89.90
16032;DHT22;8120;48.308;8.914;2022-12-18T03:49:01;-13.40;90.20
16032;DHT22;8120;48.308;8.914;2022-12-18T03:51:38;-13.40;89.50
16032;DHT22;8120;48.308;8.914;2022-12-18T03:54:09;-13.40;90.40
16032;DHT22;8120;48.308;8.914;2022-12-18T03:56:40;-13.40;90.00
16032;DHT22;8120;48.308;8.914;2022-12-18T03:59:12;-13.50;89.10
16032;DHT22;8120;48.308;8.914;2022-12-18T04:01:45;-13.50;89.10
16032;DHT22;8120;48.308;8.914;2022-12-18T04:04:14;-13.60;89.10
16032;DHT22;8120;48.308;8.914;2022-12-18T04:06:45;-13.70;88.60
16032;DHT22;8120;48.308;8.914;2022-12-18T04:09:14;-13.80;88.70
16032;DHT22;8120;48.308;8.914;2022-12-18T04:11:42;-13.90;89.30
16032;DHT22;8120;48.308;8.914;2022-12-18T04:14:12;-13.90;89.30
16032;DHT22;8120;48.308;8.914;2022-12-18T04:16:44;-13.90;89.40
16032;DHT22;8120;48.308;8.914;2022-12-18T04:19:12;-13.90;90.10
16032;DHT22;8120;48.308;8.914;2022-12-18T04:21:40;-13.70;91.70
16032;DHT22;8120;48.308;8.914;2022-12-18T04:24:08;-13.60;91.60
16032;DHT22;8120;48.308;8.914;2022-12-18T04:26:36;-13.60;91.30
16032;DHT22;8120;48.308;8.914;2022-12-18T04:29:04;-13.50;91.20
16032;DHT22;8120;48.308;8.914;2022-12-18T04:31:34;-13.50;91.30
16032;DHT22;8120;48.308;8.914;2022-12-18T04:34:02;-13.50;91.20
16032;DHT22;8120;48.308;8.914;2022-12-18T04:36:30;-13.50;90.40
16032;DHT22;8120;48.308;8.914;2022-12-18T04:38:57;-13.60;89.70
16032;DHT22;8120;48.308;8.914;2022-12-18T04:41:26;-13.80;89.20
16032;DHT22;8120;48.308;8.914;2022-12-18T04:43:53;-13.80;89.60
16032;DHT22;8120;48.308;8.914;2022-12-18T04:46:21;-13.80;89.50
16032;DHT22;8120;48.308;8.914;2022-12-18T04:48:50;-13.80;89.90
16032;DHT22;8120;48.308;8.914;2022-12-18T04:51:18;-13.70;90.70
16032;DHT22;8120;48.308;8.914;2022-12-18T04:53:52;-13.70;90.50
16032;DHT22;8120;48.308;8.914;2022-12-18T04:56:20;-13.90;88.70
16032;DHT22;8120;48.308;8.914;2022-12-18T04:58:48;-14.00;88.80
16032;DHT22;8120;48.308;8.914;2022-12-18T05:01:17;-14.00;88.70
16032;DHT22;8120;48.308;8.914;2022-12-18T05:03:46;-13.90;90.20
16032;DHT22;8120;48.308;8.914;2022-12-18T05:06:15;-13.80;90.80
16032;DHT22;8120;48.308;8.914;2022-12-18T05:08:43;-13.80;90.10
16032;DHT22;8120;48.308;8.914;2022-12-18T05:11:13;-13.80;89.80
16032;DHT22;8120;48.308;8.914;2022-12-18T05:13:42;-13.70;90.90
16032;DHT22;8120;48.308;8.914;2022-12-18T05:16:11;-13.40;92.50
16032;DHT22;8120;48.308;8.914;2022-12-18T05:18:40;-13.40;91.50
16032;DHT22;8120;48.308;8.914;2022-12-18T05:21:08;-13.60;90.40
16032;DHT22;8120;48.308;8.914;2022-12-18T05:23:37;-13.60;91.10
16032;DHT22;8120;48.308;8.914;2022-12-18T05:26:06;-13.50;90.00
16032;DHT22;8120;48.308;8.914;2022-12-18T05:28:35;-13.50;92.00
16032;DHT22;8120;48.308;8.914;2022-12-18T05:31:04;-13.10;93.70
16032;DHT22;8120;48.308;8.914;2022-12-18T05:33:33;-13.10;92.70
16032;DHT22;8120;48.308;8.914;2022-12-18T05:36:03;-13.30;90.80
16032;DHT22;8120;48.308;8.914;2022-12-18T05:38:33;-13.30;90.70
16032;DHT22;8120;48.308;8.914;2022-12-18T05:41:03;-13.50;89.20
16032;DHT22;8120;48.308;8.914;2022-12-18T05:43:33;-13.80;87.60
16032;DHT22;8120;48.308;8.914;2022-12-18T05:46:04;-14.00;87.10
16032;DHT22;8120;48.308;8.914;2022-12-18T05:48:32;-14.10;88.00
16032;DHT22;8120;48.308;8.914;2022-12-18T05:51:05;-14.10;89.40
16032;DHT22;8120;48.308;8.914;2022-12-18T05:53:33;-14.10;88.70
16032;DHT22;8120;48.308;8.914;2022-12-18T05:56:05;-14.10;89.20
16032;DHT22;8120;48.308;8.914;2022-12-18T05:58:34;-14.20;88.50
16032;DHT22;8120;48.308;8.914;2022-12-18T06:01:07;-14.20;89.80
16032;DHT22;8120;48.308;8.914;2022-12-18T06:03:35;-14.10;89.90
16032;DHT22;8120;48.308;8.914;2022-12-18T06:06:03;-14.10;89.80
16032;DHT22;8120;48.308;8.914;2022-12-18T06:08:31;-13.90;90.90
16032;DHT22;8120;48.308;8.914;2022-12-18T06:10:59;-13.90;90.10
16032;DHT22;8120;48.308;8.914;2022-12-18T06:13:28;-13.90;90.00
16032;DHT22;8120;48.308;8.914;2022-12-18T06:15:56;-13.90;89.90
16032;DHT22;8120;48.308;8.914;2022-12-18T06:18:24;-13.80;91.10
16032;DHT22;8120;48.308;8.914;2022-12-18T06:20:55;-13.60;91.80
16032;DHT22;8120;48.308;8.914;2022-12-18T06:23:23;-13.70;91.00
16032;DHT22;8120;48.308;8.914;2022-12-18T06:25:52;-13.60;91.20
16032;DHT22;8120;48.308;8.914;2022-12-18T06:28:20;-13.70;91.20
16032;DHT22;8120;48.308;8.914;2022-12-18T06:30:49;-13.60;91.40
16032;DHT22;8120;48.308;8.914;2022-12-18T06:33:17;-13.60;90.90
16032;DHT22;8120;48.308;8.914;2022-12-18T06:35:45;-13.50;91.80
16032;DHT22;8120;48.308;8.914;2022-12-18T06:38:13;-13.50;90.80
16032;DHT22;8120;48.308;8.914;2022-12-18T06:40:41;-13.50;91.30
16032;DHT22;8120;48.308;8.914;2022-12-18T06:43:09;-13.60;90.10
16032;DHT22;8120;48.308;8.914;2022-12-18T06:45:36;-13.70;89.60
16032;DHT22;8120;48.308;8.914;2022-12-18T06:48:06;-13.80;88.90
16032;DHT22;8120;48.308;8.914;2022-12-18T06:50:35;-14.00;87.90
16032;DHT22;8120;48.308;8.914;2022-12-18T06:53:03;-14.10;87.80
16032;DHT22;8120;48.308;8.914;2022-12-18T06:55:33;-14.20;88.30
16032;DHT22;8120;48.308;8.914;2022-12-18T06:58:00;-14.20;88.70
16032;DHT22;8120;48.308;8.914;2022-12-18T07:00:30;-14.20;90.30
16032;DHT22;8120;48.308;8.914;2022-12-18T07:02:58;-14.00;90.90
16032;DHT22;8120;48.308;8.914;2022-12-18T07:05:27;-13.90;90.90
16032;DHT22;8120;48.308;8.914;2022-12-18T07:07:55;-13.90;90.70
16032;DHT22;8120;48.308;8.914;2022-12-18T07:10:23;-13.90;90.40
16032;DHT22;8120;48.308;8.914;2022-12-18T07:12:51;-13.90;89.40
16032;DHT22;8120;48.308;8.914;2022-12-18T07:15:19;-14.00;88.60
16032;DHT22;8120;48.308;8.914;2022-12-18T07:17:47;-14.00;89.40
16032;DHT22;8120;48.308;8.914;2022-12-18T07:20:15;-14.10;88.90
16032;DHT22;8120;48.308;8.914;2022-12-18T07:22:44;-14.00;89.70
16032;DHT22;8120;48.308;8.914;2022-12-18T07:25:17;-13.90;90.90
16032;DHT22;8120;48.308;8.914;2022-12-18T07:27:45;-13.80;90.60
16032;DHT22;8120;48.308;8.914;2022-12-18T07:30:13;-13.80;89.70
16032;DHT22;8120;48.308;8.914;2022-12-18T07:32:42;-13.80;89.00
16032;DHT22;8120;48.308;8.914;2022-12-18T07:35:10;-13.80;88.90
16032;DHT22;8120;48.308;8.914;2022-12-18T07:37:37;-13.80;88.80
16032;DHT22;8120;48.308;8.914;2022-12-18T07:40:08;-13.90;88.20
16032;DHT22;8120;48.308;8.914;2022-12-18T07:42:36;-13.90;88.40
16032;DHT22;8120;48.308;8.914;2022-12-18T07:45:05;-13.80;89.00
16032;DHT22;8120;48.308;8.914;2022-12-18T07:47:35;-13.60;90.10
16032;DHT22;8120;48.308;8.914;2022-12-18T07:50:04;-13.30;91.40
16032;DHT22;8120;48.308;8.914;2022-12-18T07:52:32;-13.00;92.30
16032;DHT22;8120;48.308;8.914;2022-12-18T07:55:00;-12.90;91.00
16032;DHT22;8120;48.308;8.914;2022-12-18T07:57:29;-12.90;90.00
16032;DHT22;8120;48.308;8.914;2022-12-18T08:00:16;-12.80;89.40
16032;DHT22;8120;48.308;8.914;2022-12-18T08:02:44;-12.60;89.50
16032;DHT22;8120;48.308;8.914;2022-12-18T08:05:14;-12.60;88.70
16032;DHT22;8120;48.308;8.914;2022-12-18T08:07:42;-12.70;86.60
16032;DHT22;8120;48.308;8.914;2022-12-18T08:10:10;-12.60;88.50
16032;DHT22;8120;48.308;8.914;2022-12-18T08:12:39;-12.20;90.80
16032;DHT22;8120;48.308;8.914;2022-12-18T08:15:07;-11.80;92.10
16032;DHT22;8120;48.308;8.914;2022-12-18T08:17:35;-11.50;92.20
16032;DHT22;8120;48.308;8.914;2022-12-18T08:20:03;-11.40;90.70
16032;DHT22;8120;48.308;8.914;2022-12-18T08:22:33;-11.20;90.60
16032;DHT22;8120;48.308;8.914;2022-12-18T08:25:02;-11.10;88.50
16032;DHT22;8120;48.308;8.914;2022-12-18T08:27:30;-11.00;88.20
16032;DHT22;8120;48.308;8.914;2022-12-18T08:30:01;-11.10;86.30
16032;DHT22;8120;48.308;8.914;2022-12-18T08:32:29;-11.10;86.20
16032;DHT22;8120;48.308;8.914;2022-12-18T08:34:59;-11.20;85.40
16032;DHT22;8120;48.308;8.914;2022-12-18T08:37:27;-11.10;85.70
16032;DHT22;8120;48.308;8.914;2022-12-18T08:39:55;-10.90;87.30
16032;DHT22;8120;48.308;8.914;2022-12-18T08:42:22;-10.80;86.70
16032;DHT22;8120;48.308;8.914;2022-12-18T08:45:10;-10.70;87.70
16032;DHT22;8120;48.308;8.914;2022-12-18T08:47:38;-10.40;89.10
16032;DHT22;8120;48.308;8.914;2022-12-18T08:50:06;-10.20;87.90
16032;DHT22;8120;48.308;8.914;2022-12-18T08:52:34;-10.00;88.00
16032;DHT22;8120;48.308;8.914;2022-12-18T08:55:02;-9.90;88.50
16032;DHT22;8120;48.308;8.914;2022-12-18T08:57:30;-9.60;89.40
16032;DHT22;8120;48.308;8.914;2022-12-18T08:59:58;-9.40;90.40
16032;DHT22;8120;48.308;8.914;2022-12-18T09:02:27;-9.20;89.60
16032;DHT22;8120;48.308;8.914;2022-12-18T09:04:55;-8.90;90.50
16032;DHT22;8120;48.308;8.914;2022-12-18T09:07:23;-8.70;90.50
16032;DHT22;8120;48.308;8.914;2022-12-18T09:09:51;-8.60;90.70
16032;DHT22;8120;48.308;8.914;2022-12-18T09:12:19;-8.30;92.00
16032;DHT22;8120;48.308;8.914;2022-12-18T09:14:47;-8.10;92.40
16032;DHT22;8120;48.308;8.914;2022-12-18T09:17:14;-7.80;92.40
16032;DHT22;8120;48.308;8.914;2022-12-18T09:19:44;-7.60;91.10
16032;DHT22;8120;48.308;8.914;2022-12-18T09:22:12;-7.50;90.10
16032;DHT22;8120;48.308;8.914;2022-12-18T09:24:39;-7.50;88.10
16032;DHT22;8120;48.308;8.914;2022-12-18T09:27:07;-7.50;89.10
16032;DHT22;8120;48.308;8.914;2022-12-18T09:29:35;-7.30;89.40
16032;DHT22;8120;48.308;8.914;2022-12-18T09:32:04;-7.20;90.00
16032;DHT22;8120;48.308;8.914;2022-12-18T09:34:32;-7.00;90.30
16032;DHT22;8120;48.308;8.914;2022-12-18T09:37:01;-6.80;90.80
16032;DHT22;8120;48.308;8.914;2022-12-18T09:39:29;-6.60;90.60
16032;DHT22;8120;48.308;8.914;2022-12-18T09:41:58;-6.60;88.10
16032;DHT22;8120;48.308;8.914;2022-12-18T09:44:28;-6.70;88.10
16032;DHT22;8120;48.308;8.914;2022-12-18T09:47:04;-6.60;88.10
16032;DHT22;8120;48.308;8.914;2022-12-18T09:49:40;-6.50;88.70
16032;DHT22;8120;48.308;8.914;2022-12-18T09:52:14;-6.40;88.50
16032;DHT22;8120;48.308;8.914;2022-12-18T09:54:46;-6.40;87.60
16032;DHT22;8120;48.308;8.914;2022-12-18T09:57:18;-6.30;88.50
16032;DHT22;8120;48.308;8.914;2022-12-18T09:59:51;-6.10;89.80
16032;DHT22;8120;48.308;8.914;2022-12-18T10:02:22;-6.00;88.80
16032;DHT22;8120;48.308;8.914;2022-12-18T10:05:00;-5.90;89.00
16032;DHT22;8120;48.308;8.914;2022-12-18T10:07:38;-5.80;89.00
16032;DHT22;8120;48.308;8.914;2022-12-18T10:10:15;-5.60;89.30
16032;DHT22;8120;48.308;8.914;2022-12-18T10:12:53;-5.70;87.70
16032;DHT22;8120;48.308;8.914;2022-12-18T10:15:34;-5.60;89.30
16032;DHT22;8120;48.308;8.914;2022-12-18T10:18:14;-5.50;88.40
16032;DHT22;8120;48.308;8.914;2022-12-18T10:20:49;-5.40;89.60
16032;DHT22;8120;48.308;8.914;2022-12-18T10:23:25;-5.30;87.80
16032;DHT22;8120;48.308;8.914;2022-12-18T10:25:58;-5.20;89.40
16032;DHT22;8120;48.308;8.914;2022-12-18T10:28:30;-5.20;89.00
16032;DHT22;8120;48.308;8.914;2022-12-18T10:30:58;-5.00;90.20
16032;DHT22;8120;48.308;8.914;2022-12-18T10:33:29;-4.70;90.30
16032;DHT22;8120;48.308;8.914;2022-12-18T10:35:58;-4.60;89.20
16032;DHT22;8120;48.308;8.914;2022-12-18T10:38:29;-4.40;89.90
16032;DHT22;8120;48.308;8.914;2022-12-18T10:40:58;-4.40;88.80
16032;DHT22;8120;48.308;8.914;2022-12-18T10:43:28;-4.30;89.90
16032;DHT22;8120;48.308;8.914;2022-12-18T10:46:11;-4.30;86.90
16032;DHT22;8120;48.308;8.914;2022-12-18T10:48:49;-4.00;89.20
16032;DHT22;8120;48.308;8.914;2022-12-18T10:51:23;-3.80;88.40
16032;DHT22;8120;48.308;8.914;2022-12-18T10:53:55;-3.40;91.20
16032;DHT22;8120;48.308;8.914;2022-12-18T10:56:26;-3.60;85.30
16032;DHT22;8120;48.308;8.914;2022-12-18T10:59:00;-3.70;86.00
16032;DHT22;8120;48.308;8.914;2022-12-18T11:01:45;-3.80;84.00
16032;DHT22;8120;48.308;8.914;2022-12-18T11:04:18;-3.90;85.40
16032;DHT22;8120;48.308;8.914;2022-12-18T11:06:54;-3.90;86.30
16032;DHT22;8120;48.308;8.914;2022-12-18T11:09:25;-3.80;85.80
16032;DHT22;8120;48.308;8.914;2022-12-18T11:11:54;-3.60;87.50
16032;DHT22;8120;48.308;8.914;2022-12-18T11:14:24;-3.40;88.10
16032;DHT22;8120;48.308;8.914;2022-12-18T11:16:54;-3.60;83.80
16032;DHT22;8120;48.308;8.914;2022-12-18T11:19:43;-3.40;86.60
16032;DHT22;8120;48.308;8.914;2022-12-18T11:22:20;-3.50;84.30
16032;DHT22;8120;48.308;8.914;2022-12-18T11:24:55;-3.50;84.70
16032;DHT22;8120;48.308;8.914;2022-12-18T11:27:48;-3.40;86.60
16032;DHT22;8120;48.308;8.914;2022-12-18T11:30:22;-3.50;85.20
16032;DHT22;8120;48.308;8.914;2022-12-18T11:32:51;-3.40;84.20
16032;DHT22;8120;48.308;8.914;2022-12-18T11:35:23;-3.20;85.50
16032;DHT22;8120;48.308;8.914;2022-12-18T11:37:56;-3.10;85.50
16032;DHT22;8120;48.308;8.914;2022-12-18T11:40:31;-3.10;83.20
16032;DHT22;8120;48.308;8.914;2022-12-18T11:43:09;-3.00;85.50
16032;DHT22;8120;48.308;8.914;2022-12-18T11:45:43;-2.70;85.40
16032;DHT22;8120;48.308;8.914;2022-12-18T11:48:17;-2.50;84.80
16032;DHT22;8120;48.308;8.914;2022-12-18T11:50:50;-2.40;83.40
16032;DHT22;8120;48.308;8.914;2022-12-18T11:53:19;-2.30;82.60
16032;DHT22;8120;48.308;8.914;2022-12-18T11:56:02;-2.40;79.70
16032;DHT22;8120;48.308;8.914;2022-12-18T11:58:46;-2.40;80.80
16032;DHT22;8120;48.308;8.914;2022-12-18T12:01:28;-2.20;81.80
16032;DHT22;8120;48.308;8.914;2022-12-18T12:04:35;-2.10;82.10
16032;DHT22;8120;48.308;8.914;2022-12-18T12:07:17;-2.00;79.10
16032;DHT22;8120;48.308;8.914;2022-12-18T12:09:54;-1.90;77.50
16032;DHT22;8120;48.308;8.914;2022-12-18T12:12:33;-1.70;77.30
16032;DHT22;8120;48.308;8.914;2022-12-18T12:15:25;-1.60;77.60
16032;DHT22;8120;48.308;8.914;2022-12-18T12:17:59;-1.60;75.40
16032;DHT22;8120;48.308;8.914;2022-12-18T12:20:45;-1.50;75.20
16032;DHT22;8120;48.308;8.914;2022-12-18T12:23:22;-1.70;72.90
16032;DHT22;8120;48.308;8.914;2022-12-18T12:25:59;-1.80;75.10
16032;DHT22;8120;48.308;8.914;2022-12-18T12:28:50;-1.80;72.70
16032;DHT22;8120;48.308;8.914;2022-12-18T12:31:27;-1.90;72.40
16032;DHT22;8120;48.308;8.914;2022-12-18T12:34:07;-2.10;73.80
16032;DHT22;8120;48.308;8.914;2022-12-18T12:36:42;-2.00;70.90
16032;DHT22;8120;48.308;8.914;2022-12-18T12:39:18;-2.30;69.20
16032;DHT22;8120;48.308;8.914;2022-12-18T12:41:48;-2.50;70.20
16032;DHT22;8120;48.308;8.914;2022-12-18T12:44:39;-2.30;69.80
16032;DHT22;8120;48.308;8.914;2022-12-18T12:47:14;-2.20;70.00
16032;DHT22;8120;48.308;8.914;2022-12-18T12:49:44;-1.90;69.70
16032;DHT22;8120;48.308;8.914;2022-12-18T12:52:21;-1.90;69.40
16032;DHT22;8120;48.308;8.914;2022-12-18T12:54:53;-1.60;68.30
16032;DHT22;8120;48.308;8.914;2022-12-18T12:57:23;-1.40;67.30
16032;DHT22;8120;48.308;8.914;2022-12-18T12:59:59;-1.30;67.00
16032;DHT22;8120;48.308;8.914;2022-12-18T13:02:32;-1.20;65.70
16032;DHT22;8120;48.308;8.914;2022-12-18T13:05:08;-1.40;66.70
16032;DHT22;8120;48.308;8.914;2022-12-18T13:07:45;-1.60;67.90
16032;DHT22;8120;48.308;8.914;2022-12-18T13:10:25;-1.60;68.00
16032;DHT22;8120;48.308;8.914;2022-12-18T13:12:55;-1.40;67.30
16032;DHT22;8120;48.308;8.914;2022-12-18T13:15:28;-1.30;66.50
16032;DHT22;8120;48.308;8.914;2022-12-18T13:18:19;-1.40;66.80
16032;DHT22;8120;48.308;8.914;2022-12-18T13:20:49;-1.40;67.40
16032;DHT22;8120;48.308;8.914;2022-12-18T13:23:33;-1.40;67.20
16032;DHT22;8120;48.308;8.914;2022-12-18T13:26:29;-1.40;66.40
16032;DHT22;8120;48.308;8.914;2022-12-18T13:29:01;-1.40;67.20
16032;DHT22;8120;48.308;8.914;2022-12-18T13:31:59;-1.50;68.30
16032;DHT22;8120;48.308;8.914;2022-12-18T13:34:29;-1.40;67.10
16032;DHT22;8120;48.308;8.914;2022-12-18T13:40:00;-1.60;68.40
16032;DHT22;8120;48.308;8.914;2022-12-18T13:42:40;-1.70;69.00
16032;DHT22;8120;48.308;8.914;2022-12-18T13:45:44;-1.60;68.20
16032;DHT22;8120;48.308;8.914;2022-12-18T13:48:25;-1.80;68.50
16032;DHT22;8120;48.308;8.914;2022-12-18T13:50:57;-1.90;68.70
16032;DHT22;8120;48.308;8.914;2022-12-18T13:53:29;-1.80;70.20
16032;DHT22;8120;48.308;8.914;2022-12-18T13:55:58;-2.00;69.70
16032;DHT22;8120;48.308;8.914;2022-12-18T13:58:26;-2.20;71.70
16032;DHT22;8120;48.308;8.914;2022-12-18T14:00:54;-2.30;71.70
16032;DHT22;8120;48.308;8.914;2022-12-18T14:03:26;-2.40;72.90
16032;DHT22;8120;48.308;8.914;2022-12-18T14:05:58;-2.40;73.10
16032;DHT22;8120;48.308;8.914;2022-12-18T14:08:32;-2.40;74.20
16032;DHT22;8120;48.308;8.914;2022-12-18T14:11:04;-2.40;73.10
16032;DHT22;8120;48.308;8.914;2022-12-18T14:13:36;-2.40;74.00
16032;DHT22;8120;48.308;8.914;2022-12-18T14:16:06;-2.40;73.90
16032;DHT22;8120;48.308;8.914;2022-12-18T14:18:44;-2.50;74.40
16032;DHT22;8120;48.308;8.914;2022-12-18T14:21:20;-2.60;74.90
16032;DHT22;8120;48.308;8.914;2022-12-18T14:23:48;-2.70;75.80
16032;DHT22;8120;48.308;8.914;2022-12-18T14:26:24;-2.80;76.10
16032;DHT22;8120;48.308;8.914;2022-12-18T14:28:54;-3.00;77.50
16032;DHT22;8120;48.308;8.914;2022-12-18T14:31:24;-3.00;77.70
16032;DHT22;8120;48.308;8.914;2022-12-18T14:33:54;-3.00;78.60
16032;DHT22;8120;48.308;8.914;2022-12-18T14:36:23;-3.10;78.80
16032;DHT22;8120;48.308;8.914;2022-12-18T14:38:53;-3.20;79.10
16032;DHT22;8120;48.308;8.914;2022-12-18T14:41:22;-3.20;79.40
16032;DHT22;8120;48.308;8.914;2022-12-18T14:43:52;-3.30;79.40
16032;DHT22;8120;48.308;8.914;2022-12-18T14:46:30;-3.50;79.40
16032;DHT22;8120;48.308;8.914;2022-12-18T14:49:03;-3.60;80.70
16032;DHT22;8120;48.308;8.914;2022-12-18T14:51:33;-3.60;81.50
16032;DHT22;8120;48.308;8.914;2022-12-18T14:54:03;-3.80;80.70
16032;DHT22;8120;48.308;8.914;2022-12-18T14:56:35;-4.00;81.10
16032;DHT22;8120;48.308;8.914;2022-12-18T14:59:05;-4.10;82.50
16032;DHT22;8120;48.308;8.914;2022-12-18T15:01:36;-4.30;82.40
16032;DHT22;8120;48.308;8.914;2022-12-18T15:04:24;-4.40;84.20
16032;DHT22;8120;48.308;8.914;2022-12-18T15:07:08;-4.60;84.00
16032;DHT22;8120;48.308;8.914;2022-12-18T15:09:37;-4.90;84.80
16032;DHT22;8120;48.308;8.914;2022-12-18T15:12:22;-5.00;86.50
16032;DHT22;8120;48.308;8.914;2022-12-18T15:14:52;-5.20;87.10
16032;DHT22;8120;48.308;8.914;2022-12-18T15:17:22;-5.40;87.40
16032;DHT22;8120;48.308;8.914;2022-12-18T15:19:58;-5.60;89.00
16032;DHT22;8120;48.308;8.914;2022-12-18T15:22:29;-5.70;90.30
16032;DHT22;8120;48.308;8.914;2022-12-18T15:24:58;-5.80;90.70
16032;DHT22;8120;48.308;8.914;2022-12-18T15:27:29;-5.90;91.10
16032;DHT22;8120;48.308;8.914;2022-12-18T15:33:22;-6.00;94.30
16032;DHT22;8120;48.308;8.914;2022-12-18T15:35:57;-6.00;95.30
16032;DHT22;8120;48.308;8.914;2022-12-18T15:38:25;-6.00;96.10
16032;DHT22;8120;48.308;8.914;2022-12-18T15:40:54;-5.90;96.90
16032;DHT22;8120;48.308;8.914;2022-12-18T15:43:23;-6.00;96.70
16032;DHT22;8120;48.308;8.914;2022-12-18T15:46:06;-6.20;95.60
16032;DHT22;8120;48.308;8.914;2022-12-18T15:48:37;-6.50;94.30
16032;DHT22;8120;48.308;8.914;2022-12-18T15:51:13;-6.70;94.60
16032;DHT22;8120;48.308;8.914;2022-12-18T15:53:42;-6.70;95.40
16032;DHT22;8120;48.308;8.914;2022-12-18T15:56:11;-6.70;95.90
16032;DHT22;8120;48.308;8.914;2022-12-18T15:58:57;-6.70;96.00
16032;DHT22;8120;48.308;8.914;2022-12-18T16:01:28;-6.70;97.00
16032;DHT22;8120;48.308;8.914;2022-12-18T16:03:57;-6.70;97.80
16032;DHT22;8120;48.308;8.914;2022-12-18T16:06:26;-6.60;97.90
16032;DHT22;8120;48.308;8.914;2022-12-18T16:09:14;-6.70;97.90
16032;DHT22;8120;48.308;8.914;2022-12-18T16:11:45;-6.60;98.30
16032;DHT22;8120;48.308;8.914;2022-12-18T16:14:18;-6.60;98.50